PWSweather.com
Personal Weather Stations
Station Observations
03410
LignerollesTF

LignerollesTF

Lat: 46.292342, Lon: 2.589435

Elevation: 1014

Station Type: Vantage Vue

http://meteo-lignerolles.fr

Latest ConditionsUpdated 7:10:00 PM GMT+01:01 Wednesday, Apr 24, 2019
Currently Today's Max Today's Min Today's Average
Temperature 60.1°F15.6°C 66.0°F18.9°C 49.6°F9.8°C 58.2°F14.6°C
Dew Point 42.9°F6.1°C 47.4°F8.6°C 39.3°F4.1°C 44.2°F6.8°C
Winds 2.0 mph WSW3.2 kmh WSW 10.0 mph -16.1 kmh - - 4.6 mph 7.4 kmh
Wind Gusts 8.0 mph12.9 kmh 20.0 mph32.2 kmh - -
Humidity 53% 92% 40% 62%
Pressure 29.57 in1001.4 mb 29.61 in1002.7 mb 29.53 in1000.0 mb -
Precipitation - 0.03 in0.8 mm - -
Hour Temp Dew Point Humidity Winds Wind Gusts Pressure Precip Precip Rate Daily Precip Total
07:10 PM 60.1°F15.6°C 42.9°F6.1°C 53% 2.0 mph WSW3.2 kmh WSW 8.0 mph12.9 kmh 29.57 in1001.4 mb 0.00 in0.0 mm 0.00 in0.0 mm 0.03 in0.8 mm
07:00 PM 61.2°F16.2°C 42.4°F5.8°C 50% 3.0 mph SW4.8 kmh SW 10.0 mph16.1 kmh 29.57 in1001.4 mb 0.00 in0.0 mm 0.00 in0.0 mm 0.03 in0.8 mm
06:50 PM 63.1°F17.3°C 42.0°F5.6°C 46% 3.0 mph SW4.8 kmh SW 8.0 mph12.9 kmh 29.57 in1001.4 mb 0.00 in0.0 mm 0.00 in0.0 mm 0.03 in0.8 mm
06:40 PM 63.9°F17.7°C 43.3°F6.3°C 47% 1.0 mph SW1.6 kmh SW 6.0 mph9.7 kmh 29.56 in1001.0 mb 0.00 in0.0 mm 0.00 in0.0 mm 0.03 in0.8 mm
06:30 PM 62.6°F17.0°C 41.0°F5.0°C 45% 3.0 mph SW4.8 kmh SW 10.0 mph16.1 kmh 29.56 in1001.0 mb 0.00 in0.0 mm 0.00 in0.0 mm 0.03 in0.8 mm
06:20 PM 63.9°F17.7°C 41.0°F5.0°C 43% 3.0 mph SW4.8 kmh SW 10.0 mph16.1 kmh 29.56 in1001.0 mb 0.00 in0.0 mm 0.00 in0.0 mm 0.03 in0.8 mm
06:10 PM 62.7°F17.1°C 39.3°F4.1°C 42% 4.0 mph SW6.4 kmh SW 13.0 mph20.9 kmh 29.56 in1001.0 mb 0.00 in0.0 mm 0.00 in0.0 mm 0.03 in0.8 mm
06:00 PM 62.3°F16.8°C 40.1°F4.5°C 44% 3.0 mph SW4.8 kmh SW 9.0 mph14.5 kmh 29.56 in1001.0 mb 0.00 in0.0 mm 0.00 in0.0 mm 0.03 in0.8 mm
05:50 PM 62.8°F17.1°C 40.0°F4.4°C 43% 4.0 mph SW6.4 kmh SW 12.0 mph19.3 kmh 29.57 in1001.4 mb 0.00 in0.0 mm 0.00 in0.0 mm 0.03 in0.8 mm
05:40 PM 63.5°F17.5°C 40.6°F4.8°C 43% 3.0 mph SW4.8 kmh SW 9.0 mph14.5 kmh 29.56 in1001.0 mb 0.00 in0.0 mm 0.00 in0.0 mm 0.03 in0.8 mm
05:30 PM 63.5°F17.5°C 39.4°F4.1°C 41% 5.0 mph SW8.0 kmh SW 14.0 mph22.5 kmh 29.57 in1001.4 mb 0.00 in0.0 mm 0.00 in0.0 mm 0.03 in0.8 mm
05:20 PM 64.1°F17.8°C 39.3°F4.1°C 40% 5.0 mph SW8.0 kmh SW 13.0 mph20.9 kmh 29.56 in1001.0 mb 0.00 in0.0 mm 0.00 in0.0 mm 0.03 in0.8 mm
05:10 PM 64.6°F18.1°C 41.6°F5.3°C 43% 4.0 mph WSW6.4 kmh WSW 10.0 mph16.1 kmh 29.56 in1001.0 mb 0.00 in0.0 mm 0.00 in0.0 mm 0.03 in0.8 mm
05:00 PM 64.0°F17.8°C 41.6°F5.3°C 44% 4.0 mph SW6.4 kmh SW 11.0 mph17.7 kmh 29.56 in1001.0 mb 0.00 in0.0 mm 0.00 in0.0 mm 0.03 in0.8 mm
04:50 PM 64.0°F17.8°C 41.6°F5.3°C 44% 4.0 mph SW6.4 kmh SW 13.0 mph20.9 kmh 29.56 in1001.0 mb 0.00 in0.0 mm 0.00 in0.0 mm 0.03 in0.8 mm
04:40 PM 63.7°F17.6°C 41.4°F5.2°C 44% 6.0 mph SW9.7 kmh SW 16.0 mph25.7 kmh 29.56 in1001.0 mb 0.00 in0.0 mm 0.00 in0.0 mm 0.03 in0.8 mm
04:30 PM 64.0°F17.8°C 41.1°F5.1°C 43% 6.0 mph SW9.7 kmh SW 18.0 mph29.0 kmh 29.56 in1001.0 mb 0.00 in0.0 mm 0.00 in0.0 mm 0.03 in0.8 mm
04:20 PM 63.9°F17.7°C 41.6°F5.3°C 44% 4.0 mph SW6.4 kmh SW 9.0 mph14.5 kmh 29.57 in1001.4 mb 0.00 in0.0 mm 0.00 in0.0 mm 0.03 in0.8 mm
04:10 PM 64.4°F18.0°C 41.4°F5.2°C 43% 4.0 mph SW6.4 kmh SW 9.0 mph14.5 kmh 29.56 in1001.0 mb 0.00 in0.0 mm 0.00 in0.0 mm 0.03 in0.8 mm
04:00 PM 66.0°F18.9°C 43.5°F6.4°C 44% 5.0 mph SW8.0 kmh SW 15.0 mph24.1 kmh 29.57 in1001.4 mb 0.00 in0.0 mm 0.00 in0.0 mm 0.03 in0.8 mm
03:50 PM 63.7°F17.6°C 43.1°F6.2°C 47% 5.0 mph SW8.0 kmh SW 14.0 mph22.5 kmh 29.57 in1001.4 mb 0.00 in0.0 mm 0.00 in0.0 mm 0.03 in0.8 mm
03:40 PM 63.8°F17.7°C 42.6°F5.9°C 46% 4.0 mph WSW6.4 kmh WSW 10.0 mph16.1 kmh 29.58 in1001.7 mb 0.00 in0.0 mm 0.00 in0.0 mm 0.03 in0.8 mm
03:30 PM 65.4°F18.6°C 44.1°F6.7°C 46% 3.0 mph SW4.8 kmh SW 13.0 mph20.9 kmh 29.57 in1001.4 mb 0.00 in0.0 mm 0.00 in0.0 mm 0.03 in0.8 mm
03:20 PM 65.7°F18.7°C 43.8°F6.6°C 45% 5.0 mph SW8.0 kmh SW 12.0 mph19.3 kmh 29.58 in1001.7 mb 0.00 in0.0 mm 0.00 in0.0 mm 0.03 in0.8 mm
03:10 PM 64.7°F18.2°C 45.1°F7.3°C 49% 5.0 mph SW8.0 kmh SW 13.0 mph20.9 kmh 29.58 in1001.7 mb 0.00 in0.0 mm 0.00 in0.0 mm 0.03 in0.8 mm
03:00 PM 64.8°F18.2°C 44.6°F7.0°C 48% 5.0 mph SW8.0 kmh SW 14.0 mph22.5 kmh 29.58 in1001.7 mb 0.00 in0.0 mm 0.00 in0.0 mm 0.03 in0.8 mm
02:50 PM 64.7°F18.2°C 45.1°F7.3°C 49% 6.0 mph SW9.7 kmh SW 14.0 mph22.5 kmh 29.59 in1002.0 mb 0.00 in0.0 mm 0.00 in0.0 mm 0.03 in0.8 mm
02:40 PM 63.3°F17.4°C 44.3°F6.8°C 50% 5.0 mph SW8.0 kmh SW 20.0 mph32.2 kmh 29.59 in1002.0 mb 0.00 in0.0 mm 0.00 in0.0 mm 0.03 in0.8 mm
02:30 PM 63.3°F17.4°C 45.9°F7.7°C 53% 8.0 mph SW12.9 kmh SW 13.0 mph20.9 kmh 29.60 in1002.4 mb 0.00 in0.0 mm 0.00 in0.0 mm 0.03 in0.8 mm
02:20 PM 61.4°F16.3°C 46.0°F7.8°C 57% 7.0 mph SW11.3 kmh SW 13.0 mph20.9 kmh 29.60 in1002.4 mb 0.00 in0.0 mm 0.00 in0.0 mm 0.03 in0.8 mm
02:10 PM 61.9°F16.6°C 47.0°F8.3°C 58% 7.0 mph SW11.3 kmh SW 14.0 mph22.5 kmh 29.61 in1002.7 mb 0.00 in0.0 mm 0.00 in0.0 mm 0.03 in0.8 mm
02:00 PM 61.7°F16.5°C 46.8°F8.2°C 58% 10.0 mph SW16.1 kmh SW 17.0 mph27.4 kmh 29.61 in1002.7 mb 0.00 in0.0 mm 0.00 in0.0 mm 0.03 in0.8 mm
01:50 PM 62.1°F16.7°C 46.2°F7.9°C 56% 9.0 mph SW14.5 kmh SW 17.0 mph27.4 kmh 29.61 in1002.7 mb 0.00 in0.0 mm 0.00 in0.0 mm 0.03 in0.8 mm
01:40 PM 62.0°F16.7°C 45.6°F7.6°C 55% 9.0 mph SW14.5 kmh SW 17.0 mph27.4 kmh 29.61 in1002.7 mb 0.00 in0.0 mm 0.00 in0.0 mm 0.03 in0.8 mm
01:30 PM 61.8°F16.6°C 46.4°F8.0°C 57% 4.0 mph SW6.4 kmh SW 11.0 mph17.7 kmh 29.61 in1002.7 mb 0.00 in0.0 mm 0.00 in0.0 mm 0.03 in0.8 mm
01:20 PM 60.8°F16.0°C 45.9°F7.7°C 58% 5.0 mph SW8.0 kmh SW 13.0 mph20.9 kmh 29.61 in1002.7 mb 0.00 in0.0 mm 0.00 in0.0 mm 0.03 in0.8 mm
01:10 PM 59.3°F15.2°C 46.7°F8.2°C 63% 5.0 mph SW8.0 kmh SW 13.0 mph20.9 kmh 29.61 in1002.7 mb 0.00 in0.0 mm 0.00 in0.0 mm 0.03 in0.8 mm
01:00 PM 57.6°F14.2°C 45.1°F7.3°C 63% 4.0 mph SW6.4 kmh SW 12.0 mph19.3 kmh 29.61 in1002.7 mb 0.00 in0.0 mm 0.00 in0.0 mm 0.03 in0.8 mm
12:50 PM 57.3°F14.1°C 45.2°F7.3°C 64% 4.0 mph SW6.4 kmh SW 11.0 mph17.7 kmh 29.60 in1002.4 mb 0.00 in0.0 mm 0.00 in0.0 mm 0.03 in0.8 mm
12:40 PM 57.5°F14.2°C 44.6°F7.0°C 62% 4.0 mph SW6.4 kmh SW 10.0 mph16.1 kmh 29.60 in1002.4 mb 0.00 in0.0 mm 0.00 in0.0 mm 0.03 in0.8 mm
12:30 PM 57.3°F14.1°C 45.6°F7.6°C 65% 5.0 mph SW8.0 kmh SW 11.0 mph17.7 kmh 29.60 in1002.4 mb 0.00 in0.0 mm 0.00 in0.0 mm 0.03 in0.8 mm
12:20 PM 57.7°F14.3°C 46.8°F8.2°C 67% 4.0 mph SW6.4 kmh SW 12.0 mph19.3 kmh 29.60 in1002.4 mb 0.00 in0.0 mm 0.00 in0.0 mm 0.03 in0.8 mm
12:10 PM 56.0°F13.3°C 44.8°F7.1°C 66% 5.0 mph SW8.0 kmh SW 17.0 mph27.4 kmh 29.61 in1002.7 mb 0.00 in0.0 mm 0.00 in0.0 mm 0.03 in0.8 mm
12:00 PM 55.4°F13.0°C 44.6°F7.0°C 67% 5.0 mph SW8.0 kmh SW 11.0 mph17.7 kmh 29.60 in1002.4 mb 0.00 in0.0 mm 0.00 in0.0 mm 0.03 in0.8 mm
11:50 AM 54.6°F12.6°C 44.6°F7.0°C 69% 3.0 mph SW4.8 kmh SW 9.0 mph14.5 kmh 29.60 in1002.4 mb 0.00 in0.0 mm 0.00 in0.0 mm 0.03 in0.8 mm
11:40 AM 54.9°F12.7°C 45.3°F7.4°C 70% 5.0 mph SW8.0 kmh SW 13.0 mph20.9 kmh 29.60 in1002.4 mb 0.00 in0.0 mm 0.00 in0.0 mm 0.03 in0.8 mm
11:30 AM 53.3°F11.8°C 44.5°F6.9°C 72% 4.0 mph SW6.4 kmh SW 11.0 mph17.7 kmh 29.59 in1002.0 mb 0.00 in0.0 mm 0.00 in0.0 mm 0.03 in0.8 mm
11:20 AM 52.5°F11.4°C 43.7°F6.5°C 72% 4.0 mph SW6.4 kmh SW 11.0 mph17.7 kmh 29.59 in1002.0 mb 0.00 in0.0 mm 0.00 in0.0 mm 0.03 in0.8 mm
11:10 AM 52.7°F11.5°C 44.3°F6.8°C 73% 5.0 mph SW8.0 kmh SW 13.0 mph20.9 kmh 29.61 in1002.7 mb 0.00 in0.0 mm 0.00 in0.0 mm 0.03 in0.8 mm
11:00 AM 52.4°F11.3°C 44.0°F6.7°C 73% 6.0 mph SW9.7 kmh SW 15.0 mph24.1 kmh 29.60 in1002.4 mb 0.00 in0.0 mm 0.00 in0.0 mm 0.03 in0.8 mm
10:50 AM 51.6°F10.9°C 43.2°F6.2°C 73% 7.0 mph SW11.3 kmh SW 19.0 mph30.6 kmh 29.60 in1002.4 mb 0.00 in0.0 mm 0.00 in0.0 mm 0.03 in0.8 mm
10:40 AM 51.7°F10.9°C 43.7°F6.5°C 74% 6.0 mph SW9.7 kmh SW 17.0 mph27.4 kmh 29.60 in1002.4 mb 0.00 in0.0 mm 0.00 in0.0 mm 0.03 in0.8 mm
10:30 AM 52.1°F11.2°C 44.4°F6.9°C 75% 6.0 mph SW9.7 kmh SW 17.0 mph27.4 kmh 29.59 in1002.0 mb 0.00 in0.0 mm 0.00 in0.0 mm 0.03 in0.8 mm
10:20 AM 52.9°F11.6°C 44.5°F6.9°C 73% 6.0 mph SW9.7 kmh SW 15.0 mph24.1 kmh 29.59 in1002.0 mb 0.00 in0.0 mm 0.00 in0.0 mm 0.03 in0.8 mm
10:10 AM 53.7°F12.1°C 45.6°F7.6°C 74% 5.0 mph SW8.0 kmh SW 12.0 mph19.3 kmh 29.58 in1001.7 mb 0.00 in0.0 mm 0.00 in0.0 mm 0.03 in0.8 mm
10:00 AM 53.5°F11.9°C 45.1°F7.3°C 73% 5.0 mph SW8.0 kmh SW 13.0 mph20.9 kmh 29.58 in1001.7 mb 0.00 in0.0 mm 0.00 in0.0 mm 0.03 in0.8 mm
09:50 AM 53.8°F12.1°C 45.3°F7.4°C 73% 5.0 mph SW8.0 kmh SW 12.0 mph19.3 kmh 29.57 in1001.4 mb 0.00 in0.0 mm 0.00 in0.0 mm 0.03 in0.8 mm
09:40 AM 54.6°F12.6°C 46.5°F8.1°C 74% 4.0 mph SW6.4 kmh SW 10.0 mph16.1 kmh 29.56 in1001.0 mb 0.01 in0.3 mm 0.00 in0.0 mm 0.03 in0.8 mm
09:30 AM 53.8°F12.1°C 46.4°F8.0°C 76% 4.0 mph SW6.4 kmh SW 13.0 mph20.9 kmh 29.56 in1001.0 mb 0.01 in0.3 mm 0.00 in0.0 mm 0.03 in0.8 mm
09:20 AM 53.1°F11.7°C 46.4°F8.0°C 78% 5.0 mph SW8.0 kmh SW 13.0 mph20.9 kmh 29.56 in1001.0 mb 0.01 in0.3 mm 0.00 in0.0 mm 0.03 in0.8 mm
09:10 AM 51.5°F10.8°C 45.5°F7.5°C 80% 4.0 mph SW6.4 kmh SW 11.0 mph17.7 kmh 29.56 in1001.0 mb 0.01 in0.3 mm 0.00 in0.0 mm 0.03 in0.8 mm
09:00 AM 50.1°F10.1°C 45.1°F7.3°C 83% 3.0 mph SW4.8 kmh SW 12.0 mph19.3 kmh 29.57 in1001.4 mb 0.01 in0.3 mm 0.00 in0.0 mm 0.03 in0.8 mm
08:50 AM 50.1°F10.1°C 46.1°F7.8°C 86% 3.0 mph SW4.8 kmh SW 7.0 mph11.3 kmh 29.57 in1001.4 mb 0.01 in0.3 mm 0.05 in1.3 mm 0.03 in0.8 mm
08:40 AM 49.6°F9.8°C 45.3°F7.4°C 85% 3.0 mph SW4.8 kmh SW 8.0 mph12.9 kmh 29.57 in1001.4 mb 0.00 in0.0 mm 0.00 in0.0 mm 0.02 in0.5 mm
08:30 AM 49.8°F9.9°C 46.1°F7.8°C 87% 3.0 mph SW4.8 kmh SW 11.0 mph17.7 kmh 29.57 in1001.4 mb 0.00 in0.0 mm 0.00 in0.0 mm 0.02 in0.5 mm
08:20 AM 49.7°F9.8°C 46.3°F7.9°C 88% 4.0 mph SW6.4 kmh SW 8.0 mph12.9 kmh 29.57 in1001.4 mb 0.00 in0.0 mm 0.00 in0.0 mm 0.02 in0.5 mm
08:10 AM 49.9°F9.9°C 46.5°F8.1°C 88% 2.0 mph SW3.2 kmh SW 6.0 mph9.7 kmh 29.56 in1001.0 mb 0.00 in0.0 mm 0.00 in0.0 mm 0.02 in0.5 mm
08:00 AM 50.2°F10.1°C 46.5°F8.1°C 87% 4.0 mph SW6.4 kmh SW 11.0 mph17.7 kmh 29.55 in1000.7 mb 0.01 in0.3 mm 0.00 in0.0 mm 0.02 in0.5 mm
07:50 AM 50.7°F10.4°C 47.3°F8.5°C 88% 5.0 mph SW8.0 kmh SW 12.0 mph19.3 kmh 29.54 in1000.3 mb 0.02 in0.5 mm 0.00 in0.0 mm 0.02 in0.5 mm
07:40 AM 50.3°F10.2°C 47.2°F8.4°C 89% 6.0 mph SW9.7 kmh SW 14.0 mph22.5 kmh 29.54 in1000.3 mb 0.02 in0.5 mm 0.00 in0.0 mm 0.02 in0.5 mm
07:30 AM 49.6°F9.8°C 47.4°F8.6°C 92% 3.0 mph SW4.8 kmh SW 8.0 mph12.9 kmh 29.54 in1000.3 mb 0.02 in0.5 mm 0.00 in0.0 mm 0.02 in0.5 mm
07:20 AM 49.7°F9.8°C 47.2°F8.4°C 91% 3.0 mph SW4.8 kmh SW 11.0 mph17.7 kmh 29.53 in1000.0 mb 0.02 in0.5 mm 0.07 in1.8 mm 0.02 in0.5 mm